Time;durP1;ratioP1;P1;durP2;ratioP2;P2;SDS_P1;SDS_P2;PMS_P1;PMS_P2;Temp;Humidity;BMP_temperature;BMP_pressure;BME280_temperature;BME280_humidity;BME280_pressure;Samples;Min_cycle;Max_cycle;Signal;HPM_P1;HPM_P2
2022/06/15 00:01:21;;;;;;;;;;;;;;;11.44;82.43;99564.95;1809554;79;21205;-70
2022/06/15 00:03:48;;;;;;;;;;;;;;;11.50;81.44;99560.92;1800724;79;20148;-70
2022/06/15 00:06:23;;;;;;;;;;;;;;;11.62;80.60;99557.51;1800962;79;20084;-71
2022/06/15 00:08:54;;;;;;;;;;;;;;;11.70;80.34;99563.02;1804012;79;20427;-70
2022/06/15 00:11:23;;;;;;;;;;;;;;;11.76;80.01;99562.30;1801106;79;20095;-70
2022/06/15 00:13:52;;;;;;;;;;;;;;;11.81;79.58;99556.09;1800793;79;21267;-70
2022/06/15 00:16:18;;;;;;;;;;;;;;;11.87;78.74;99563.06;1800687;79;20107;-70
2022/06/15 00:18:46;;;;;;;;;;;;;;;11.94;78.53;99563.14;1800830;79;20111;-70
2022/06/15 00:21:13;;;;;;;;;;;;;;;11.97;78.97;99561.92;1807620;79;20181;-71
2022/06/15 00:23:39;;;;;;;;;;;;;;;11.97;78.77;99559.74;1816977;79;20078;-70
2022/06/15 00:26:07;;;;;;;;;;;;;;;11.92;78.88;99557.95;1816726;78;21134;-70
2022/06/15 00:28:33;;;;;;;;;;;;;;;11.87;79.29;99552.05;1816579;79;20086;-70
2022/06/15 00:31:00;;;;;;;;;;;;;;;11.85;79.78;99559.82;1816938;79;20090;-70
2022/06/15 00:33:27;;;;;;;;;;;;;;;11.81;79.81;99554.72;1816828;79;20109;-71
2022/06/15 00:35:57;;;;;;;;;;;;;;;11.80;80.06;99557.23;1816770;78;20743;-70
2022/06/15 00:38:36;;;;;;;;;;;;;;;11.75;80.21;99553.80;1816997;78;21090;-70
2022/06/15 00:41:03;;;;;;;;;;;;;;;11.66;80.16;99549.67;1812641;79;20125;-70
2022/06/15 00:43:35;;;;;;;;;;;;;;;11.62;80.01;99554.19;1816948;78;20421;-71
2022/06/15 00:46:06;;;;;;;;;;;;;;;11.59;80.08;99552.09;1816725;78;20078;-71
2022/06/15 00:48:32;;;;;;;;;;;;;;;11.55;80.28;99559.39;1824456;78;20076;-71
2022/06/15 00:50:59;;;;;;;;;;;;;;;11.49;80.64;99562.05;1816592;79;21959;-71
2022/06/15 00:53:26;;;;;;;;;;;;;;;11.42;81.07;99554.28;1816580;79;20125;-71
2022/06/15 00:55:54;;;;;;;;;;;;;;;11.34;81.25;99557.01;1816657;79;20162;-71
2022/06/15 00:58:20;;;;;;;;;;;;;;;11.24;81.73;99556.17;1816544;79;20154;-71
2022/06/15 01:00:53;;;;;;;;;;;;;;;11.15;82.17;99564.16;1816743;78;20094;-71
2022/06/15 01:03:16;;;;;;;;;;;;;;;11.05;82.39;99559.76;1804571;78;21273;-71
2022/06/15 01:05:56;;;;;;;;;;;;;;;10.96;82.82;99557.58;1800699;79;20162;-70
2022/06/15 01:08:29;;;;;;;;;;;;;;;10.86;83.21;99556.48;1788262;79;20080;-70
2022/06/15 01:11:16;;;;;;;;;;;;;;;10.78;83.41;99562.19;1800701;79;20193;-70
2022/06/15 01:14:10;;;;;;;;;;;;;;;10.68;83.59;99558.34;1800688;79;20068;-71
2022/06/15 01:16:44;;;;;;;;;;;;;;;10.58;84.10;99569.03;1800744;79;21172;-70
2022/06/15 01:19:24;;;;;;;;;;;;;;;10.50;84.39;99563.49;1769309;79;38841;-70
2022/06/15 01:22:12;;;;;;;;;;;;;;;10.42;84.73;99569.18;1800753;79;20091;-70
2022/06/15 01:24:45;;;;;;;;;;;;;;;10.39;85.20;99568.47;1788482;79;20446;-70
2022/06/15 01:27:21;;;;;;;;;;;;;;;10.37;85.33;99565.22;1800803;79;20080;-70
2022/06/15 01:30:04;;;;;;;;;;;;;;;10.36;85.56;99571.84;1761336;79;21564;-70
2022/06/15 01:32:43;;;;;;;;;;;;;;;10.34;85.63;99569.97;1800812;79;20092;-70
2022/06/15 01:35:16;;;;;;;;;;;;;;;10.33;85.69;99574.39;1801115;79;20427;-70
2022/06/15 01:37:55;;;;;;;;;;;;;;;10.31;85.77;99576.64;1800646;79;20451;-71
2022/06/15 01:40:38;;;;;;;;;;;;;;;10.29;85.94;99576.95;1800916;79;20159;-71
2022/06/15 01:43:08;;;;;;;;;;;;;;;10.31;86.28;99576.64;1800747;79;21129;-71
2022/06/15 01:45:36;;;;;;;;;;;;;;;10.34;86.31;99577.39;1800736;79;20371;-71
2022/06/15 01:48:06;;;;;;;;;;;;;;;10.33;86.17;99585.38;1800676;79;20202;-69
2022/06/15 01:50:37;;;;;;;;;;;;;;;10.31;86.28;99578.83;1771749;79;20429;-70
2022/06/15 01:53:20;;;;;;;;;;;;;;;10.30;86.47;99587.37;1770824;81;20153;-69
2022/06/15 01:55:52;;;;;;;;;;;;;;;10.25;86.77;99585.00;1764011;81;21865;-69
2022/06/15 01:58:21;;;;;;;;;;;;;;;10.22;86.74;99588.37;1758389;81;20086;-69
2022/06/15 02:00:57;;;;;;;;;;;;;;;10.19;86.76;99590.89;1765037;81;20410;-69
2022/06/15 02:03:31;;;;;;;;;;;;;;;10.14;86.88;99591.02;1741383;82;20401;-70
2022/06/15 02:06:04;;;;;;;;;;;;;;;10.09;86.98;99592.51;1724665;82;20438;-70
2022/06/15 02:08:51;;;;;;;;;;;;;;;10.02;87.25;99597.62;1747603;81;21743;-70
2022/06/15 02:11:33;;;;;;;;;;;;;;;9.96;87.53;99599.66;1749292;81;20163;-70
2022/06/15 02:14:08;;;;;;;;;;;;;;;9.92;88.08;99596.73;1768304;81;20086;-69
2022/06/15 02:16:45;;;;;;;;;;;;;;;9.93;88.85;99605.20;1768120;81;20464;-69
2022/06/15 02:19:15;;;;;;;;;;;;;;;9.91;88.67;99599.23;1768313;81;20414;-69
2022/06/15 02:21:43;;;;;;;;;;;;;;;9.88;88.62;99607.26;1740196;81;21149;-69
2022/06/15 02:24:09;;;;;;;;;;;;;;;9.87;88.82;99605.08;1740081;81;20127;-68
2022/06/15 02:26:36;;;;;;;;;;;;;;;9.89;88.93;99611.06;1715365;80;20120;-70
2022/06/15 02:29:06;;;;;;;;;;;;;;;9.92;89.06;99611.81;1777137;80;20116;-69
2022/06/15 02:31:36;;;;;;;;;;;;;;;9.97;89.13;99615.56;1779010;80;20472;-69
2022/06/15 02:34:03;;;;;;;;;;;;;;;9.99;89.27;99617.44;1772635;81;21165;-69
2022/06/15 02:36:32;;;;;;;;;;;;;;;10.03;89.36;99621.17;1774599;80;20092;-70
2022/06/15 02:39:02;;;;;;;;;;;;;;;10.07;89.39;99627.11;1785898;80;20097;-69
2022/06/15 02:41:34;;;;;;;;;;;;;;;10.10;89.36;99625.11;1775653;80;20085;-70
2022/06/15 02:44:02;;;;;;;;;;;;;;;10.13;89.35;99626.42;1775616;81;20117;-70
2022/06/15 02:46:33;;;;;;;;;;;;;;;10.11;89.47;99624.55;1749457;81;21189;-70
2022/06/15 02:49:01;;;;;;;;;;;;;;;10.13;89.72;99629.17;1777482;79;20502;-70
2022/06/15 02:51:41;;;;;;;;;;;;;;;10.18;90.03;99629.05;1785302;79;20140;-70
2022/06/15 02:54:13;;;;;;;;;;;;;;;10.22;90.23;99626.78;1712862;82;20140;-70
2022/06/15 02:56:43;;;;;;;;;;;;;;;10.29;90.17;99631.02;1743295;82;20387;-70
2022/06/15 02:59:12;;;;;;;;;;;;;;;10.32;90.28;99635.89;1726057;82;21060;-71
2022/06/15 03:01:43;;;;;;;;;;;;;;;10.37;90.43;99627.53;1743852;82;20099;-70
2022/06/15 03:04:10;;;;;;;;;;;;;;;10.47;90.36;99629.99;1744158;82;20086;-70
2022/06/15 03:06:38;;;;;;;;;;;;;;;10.59;90.16;99630.23;1743753;82;20152;-70
2022/06/15 03:09:11;;;;;;;;;;;;;;;10.72;89.91;99632.66;1713556;82;20096;-70
2022/06/15 03:11:54;;;;;;;;;;;;;;;10.86;89.49;99632.01;1738077;82;20100;-71
2022/06/15 03:14:34;;;;;;;;;;;;;;;10.99;89.18;99631.07;1716897;82;20108;-74
2022/06/15 03:17:01;;;;;;;;;;;;;;;11.12;88.94;99635.66;1714062;82;20084;-70
2022/06/15 03:19:35;;;;;;;;;;;;;;;11.28;88.42;99631.11;1740779;82;20451;-71
2022/06/15 03:22:10;;;;;;;;;;;;;;;11.39;88.12;99632.44;1744107;82;20431;-71
2022/06/15 03:24:36;;;;;;;;;;;;;;;11.48;87.84;99634.66;1743773;82;20427;-71
2022/06/15 03:27:04;;;;;;;;;;;;;;;11.55;87.44;99637.16;1747901;81;20086;-72
2022/06/15 03:29:36;;;;;;;;;;;;;;;11.62;86.62;99635.31;1774159;81;20118;-72
2022/06/15 03:32:05;;;;;;;;;;;;;;;11.69;85.48;99634.27;1773603;81;20398;-71
2022/06/15 03:34:37;;;;;;;;;;;;;;;11.74;84.75;99638.24;1773133;81;20073;-72
2022/06/15 03:37:09;;;;;;;;;;;;;;;11.81;84.55;99639.98;1774091;81;21315;-71
2022/06/15 03:39:46;;;;;;;;;;;;;;;11.89;83.84;99641.94;1746941;80;20093;-71
2022/06/15 03:42:18;;;;;;;;;;;;;;;11.98;83.43;99643.89;1782976;80;20092;-72
2022/06/15 03:44:46;;;;;;;;;;;;;;;12.05;81.95;99640.09;1746121;80;20084;-71
2022/06/15 03:47:18;;;;;;;;;;;;;;;12.10;82.00;99643.50;1781143;80;20182;-71
2022/06/15 03:49:51;;;;;;;;;;;;;;;12.16;81.61;99643.55;1733833;82;20098;-72
2022/06/15 03:52:22;;;;;;;;;;;;;;;12.26;81.58;99652.62;1743083;82;20414;-71
2022/06/15 03:54:51;;;;;;;;;;;;;;;12.32;81.49;99649.94;1743386;82;20082;-72
2022/06/15 03:57:22;;;;;;;;;;;;;;;12.40;80.89;99654.07;1743468;82;20202;-71
2022/06/15 03:59:50;;;;;;;;;;;;;;;12.46;80.35;99658.28;1748842;82;20090;-71
2022/06/15 04:02:38;;;;;;;;;;;;;;;12.54;80.28;99664.34;1743690;82;21104;-71
2022/06/15 04:05:07;;;;;;;;;;;;;;;12.64;79.69;99663.77;1743717;82;20090;-71
2022/06/15 04:10:24;;;;;;;;;;;;;;;12.74;78.41;99661.45;1743878;82;20380;-71
2022/06/15 04:12:57;;;;;;;;;;;;;;;12.81;78.54;99651.31;1743848;82;20098;-71
2022/06/15 04:15:29;;;;;;;;;;;;;;;12.89;78.22;99653.23;1724283;82;20202;-70
2022/06/15 04:17:56;;;;;;;;;;;;;;;12.98;78.07;99658.16;1743316;82;20102;-71
2022/06/15 04:20:33;;;;;;;;;;;;;;;13.09;78.08;99653.91;1743337;82;20106;-71
2022/06/15 04:23:10;;;;;;;;;;;;;;;13.19;77.63;99652.20;1742789;82;20491;-71
2022/06/15 04:26:02;;;;;;;;;;;;;;;13.32;76.92;99647.58;1743993;81;20150;-72
2022/06/15 04:28:23;;;;;;;;;;;;;;;13.41;76.11;99648.91;1742188;82;21236;-69
2022/06/15 04:30:48;;;;;;;;;;;;;;;13.46;73.73;99648.16;1748324;82;20082;-71
2022/06/15 04:33:16;;;;;;;;;;;;;;;13.51;73.93;99652.68;1743712;82;20197;-70
2022/06/15 04:35:47;;;;;;;;;;;;;;;13.58;73.80;99652.16;1743300;82;20508;-70
2022/06/15 04:38:22;;;;;;;;;;;;;;;13.64;72.99;99647.50;1743791;82;20094;-71
2022/06/15 04:40:55;;;;;;;;;;;;;;;13.71;73.62;99650.54;1743238;82;21126;-71
2022/06/15 04:43:34;;;;;;;;;;;;;;;13.82;73.86;99647.63;1742727;82;20263;-71
2022/06/15 04:45:51;;;;;;;;;;;;;;;13.93;73.11;99655.49;1738166;82;20299;-71
2022/06/15 04:48:21;;;;;;;;;;;;;;;14.01;72.73;99654.62;1743005;82;20122;-71
2022/06/15 04:51:05;;;;;;;;;;;;;;;14.09;73.27;99650.99;1743206;81;20086;-71
2022/06/15 04:53:21;;;;;;;;;;;;;;;14.22;72.81;99651.30;1754599;81;21800;-71
2022/06/15 04:55:56;;;;;;;;;;;;;;;14.34;72.56;99648.59;1738368;82;20094;-70
2022/06/15 04:58:25;;;;;;;;;;;;;;;14.44;71.76;99645.42;1734672;82;20426;-71
2022/06/15 05:00:55;;;;;;;;;;;;;;;14.52;70.71;99646.49;1737411;82;20441;-71
2022/06/15 05:03:28;;;;;;;;;;;;;;;14.57;70.23;99652.38;1758911;81;20094;-71
2022/06/15 05:05:59;;;;;;;;;;;;;;;14.59;70.34;99655.61;1728009;82;22148;-71
2022/06/15 05:08:27;;;;;;;;;;;;;;;14.66;69.43;99663.58;1744407;82;20086;-71
2022/06/15 05:11:00;;;;;;;;;;;;;;;14.73;68.87;99650.59;1740603;82;20086;-71
2022/06/15 05:13:29;;;;;;;;;;;;;;;14.79;68.54;99658.33;1774590;80;20414;-71
2022/06/15 05:16:04;;;;;;;;;;;;;;;14.89;68.97;99654.33;1738023;81;20125;-71
2022/06/15 05:18:33;;;;;;;;;;;;;;;14.96;67.96;99659.30;1726632;83;20443;-71
2022/06/15 05:21:05;;;;;;;;;;;;;;;15.01;67.42;99658.52;1726318;83;20085;-70
2022/06/15 05:23:39;;;;;;;;;;;;;;;15.09;66.54;99661.72;1725919;83;20468;-71
2022/06/15 05:26:24;;;;;;;;;;;;;;;15.15;66.43;99667.27;1725076;82;20085;-71
2022/06/15 05:28:45;;;;;;;;;;;;;;;15.23;66.73;99666.13;1740868;81;20126;-72
2022/06/15 05:31:23;;;;;;;;;;;;;;;15.36;67.63;99666.37;1768571;81;21300;-72
2022/06/15 05:33:55;;;;;;;;;;;;;;;15.51;67.70;99665.11;1768447;81;20123;-72
2022/06/15 05:36:26;;;;;;;;;;;;;;;15.71;65.94;99671.69;1739801;81;20122;-75
2022/06/15 05:38:56;;;;;;;;;;;;;;;15.80;66.39;99670.99;1737110;81;20078;-75
2022/06/15 05:41:26;;;;;;;;;;;;;;;15.92;64.61;99669.37;1767347;81;20082;-73
2022/06/15 05:44:02;;;;;;;;;;;;;;;15.94;63.08;99662.91;1766797;81;21076;-73
2022/06/15 05:46:39;;;;;;;;;;;;;;;15.90;62.62;99664.75;1768565;81;20432;-72
2022/06/15 05:49:22;;;;;;;;;;;;;;;15.83;62.96;99669.49;1768632;81;20426;-73
2022/06/15 05:51:51;;;;;;;;;;;;;;;15.81;63.17;99663.49;1738201;81;20120;-73
2022/06/15 05:54:21;;;;;;;;;;;;;;;15.81;62.96;99669.84;1710310;82;20140;-73
2022/06/15 05:56:52;;;;;;;;;;;;;;;15.81;64.00;99666.27;1737754;82;21577;-73
2022/06/15 05:59:26;;;;;;;;;;;;;;;15.90;63.47;99668.91;1710202;82;20100;-75
2022/06/15 06:01:57;;;;;;;;;;;;;;;16.00;63.44;99669.81;1737332;82;20135;-74
2022/06/15 06:04:38;;;;;;;;;;;;;;;16.09;60.79;99669.91;1738163;82;20433;-73
2022/06/15 06:07:02;;;;;;;;;;;;;;;16.09;61.55;99671.88;1737559;82;20148;-75
2022/06/15 06:09:34;;;;;;;;;;;;;;;16.14;62.80;99663.33;1740727;81;21137;-72
2022/06/15 06:12:09;;;;;;;;;;;;;;;16.28;61.58;99669.84;1752439;81;20118;-71
2022/06/15 06:14:39;;;;;;;;;;;;;;;16.35;61.06;99677.79;1738506;81;20111;-72
2022/06/15 06:17:12;;;;;;;;;;;;;;;16.44;60.99;99678.45;1766821;81;20201;-72
2022/06/15 06:19:39;;;;;;;;;;;;;;;16.51;60.15;99684.20;1763890;81;20433;-72
2022/06/15 06:22:10;;;;;;;;;;;;;;;16.55;58.54;99672.41;1769077;81;21147;-72
2022/06/15 06:24:38;;;;;;;;;;;;;;;16.51;59.23;99673.12;1768579;81;20070;-72
2022/06/15 06:27:14;;;;;;;;;;;;;;;16.50;59.71;99677.05;1767806;81;20496;-74
2022/06/15 06:29:40;;;;;;;;;;;;;;;16.62;61.28;99672.62;1767812;81;20098;-72
2022/06/15 06:32:08;;;;;;;;;;;;;;;16.79;59.81;99672.31;1768787;81;20149;-73
2022/06/15 06:34:36;;;;;;;;;;;;;;;16.93;60.28;99668.55;1741305;81;21149;-72
2022/06/15 06:37:09;;;;;;;;;;;;;;;17.07;57.10;99670.89;1769069;81;20425;-73
2022/06/15 06:39:44;;;;;;;;;;;;;;;17.08;56.16;99672.51;1740354;81;20492;-72
2022/06/15 06:42:14;;;;;;;;;;;;;;;17.03;56.55;99668.03;1740393;81;20106;-74
2022/06/15 06:44:46;;;;;;;;;;;;;;;17.04;56.20;99679.92;1768212;81;20174;-73
2022/06/15 06:47:13;;;;;;;;;;;;;;;17.06;56.82;99678.99;1769265;81;20082;-73
2022/06/15 06:49:45;;;;;;;;;;;;;;;17.13;56.83;99679.98;1768250;80;20445;-72
2022/06/15 06:52:16;;;;;;;;;;;;;;;17.20;56.33;99684.92;1769205;80;20138;-73
2022/06/15 06:54:48;;;;;;;;;;;;;;;17.26;55.72;99682.69;1740361;81;20454;-72
2022/06/15 06:57:18;;;;;;;;;;;;;;;17.38;56.00;99679.22;1735622;81;20082;-72
2022/06/15 06:59:50;;;;;;;;;;;;;;;17.54;55.77;99679.22;1739216;81;20537;-68
2022/06/15 07:02:18;;;;;;;;;;;;;;;17.65;54.34;99684.48;1763311;81;20082;-68
2022/06/15 07:04:48;;;;;;;;;;;;;;;17.59;53.76;99688.66;1766565;81;20106;-68
2022/06/15 07:07:18;;;;;;;;;;;;;;;17.48;54.41;99685.62;1767140;81;20129;-68
2022/06/15 07:09:47;;;;;;;;;;;;;;;17.57;55.33;99680.47;1768051;81;20145;-68
2022/06/15 07:12:27;;;;;;;;;;;;;;;17.76;53.30;99684.16;1766112;81;21264;-69
2022/06/15 07:14:43;;;;;;;;;;;;;;;17.87;53.39;99689.97;1757748;81;20157;-68
2022/06/15 07:17:17;;;;;;;;;;;;;;;17.93;53.17;99684.91;1751316;80;20114;-68
2022/06/15 07:19:46;;;;;;;;;;;;;;;17.92;53.27;99683.30;1796563;80;20499;-68
2022/06/15 07:22:15;;;;;;;;;;;;;;;17.87;53.14;99689.97;1757748;81;20086;-68
2022/06/15 07:24:45;;;;;;;;;;;;;;;17.92;53.90;99689.66;1734808;81;20146;-68
2022/06/15 07:27:15;;;;;;;;;;;;;;;18.05;54.39;99688.37;1759969;81;20150;-68
2022/06/15 07:29:48;;;;;;;;;;;;;;;18.25;52.85;99689.81;1758747;81;20373;-69
2022/06/15 07:32:17;;;;;;;;;;;;;;;18.35;52.02;99685.88;1774305;81;20081;-68
2022/06/15 07:34:48;;;;;;;;;;;;;;;18.38;52.28;99689.31;1772678;81;20145;-68
2022/06/15 07:37:19;;;;;;;;;;;;;;;18.46;51.23;99691.66;1774442;81;21230;-68
2022/06/15 07:39:52;;;;;;;;;;;;;;;18.53;50.26;99679.86;1770030;81;20109;-68
2022/06/15 07:42:20;;;;;;;;;;;;;;;18.66;51.22;99679.97;1714296;82;20435;-68
2022/06/15 07:44:49;;;;;;;;;;;;;;;18.90;49.39;99681.05;1743798;82;20112;-69
2022/06/15 07:50:12;;;;;;;;;;;;;;;19.14;48.03;99682.08;1744246;81;21902;-68
2022/06/15 07:52:43;;;;;;;;;;;;;;;19.09;45.65;99684.36;1746246;80;20080;-69
2022/06/15 07:55:14;;;;;;;;;;;;;;;19.02;47.00;99687.03;1766066;80;20083;-69
2022/06/15 07:57:42;;;;;;;;;;;;;;;19.14;47.85;99684.86;1783736;80;20450;-69
2022/06/15 08:00:11;;;;;;;;;;;;;;;19.41;47.98;99674.61;1779168;80;20080;-70
2022/06/15 08:02:41;;;;;;;;;;;;;;;19.62;47.58;99683.94;1759708;80;20116;-69
2022/06/15 08:05:11;;;;;;;;;;;;;;;19.70;46.02;99687.02;1777631;80;20092;-69
2022/06/15 08:07:44;;;;;;;;;;;;;;;19.71;47.49;99683.65;1777434;79;20111;-69
2022/06/15 08:10:17;;;;;;;;;;;;;;;19.81;44.84;99673.86;1777785;80;20112;-69
2022/06/15 08:12:47;;;;;;;;;;;;;;;19.87;43.44;99682.91;1777752;80;20529;-69
2022/06/15 08:15:18;;;;;;;;;;;;;;;19.94;43.65;99675.25;1777396;80;21158;-70
2022/06/15 08:17:49;;;;;;;;;;;;;;;20.09;43.60;99682.05;1773444;80;20092;-69
2022/06/15 08:20:23;;;;;;;;;;;;;;;20.31;44.71;99677.55;1778244;80;20139;-69
2022/06/15 08:22:58;;;;;;;;;;;;;;;20.64;43.56;99669.05;1773908;80;20080;-68
2022/06/15 08:25:31;;;;;;;;;;;;;;;20.77;41.07;99685.74;1757657;80;20455;-68
2022/06/15 08:28:01;;;;;;;;;;;;;;;20.47;41.53;99677.40;1759178;80;20116;-69
2022/06/15 08:30:31;;;;;;;;;;;;;;;20.15;41.99;99688.11;1776709;80;20131;-69
2022/06/15 08:32:58;;;;;;;;;;;;;;;20.19;42.87;99682.59;1777304;80;20447;-68
2022/06/15 08:35:24;;;;;;;;;;;;;;;20.56;44.02;99674.32;1777453;80;20451;-68
2022/06/15 08:37:57;;;;;;;;;;;;;;;20.81;42.70;99676.79;1777888;80;20107;-68
2022/06/15 08:40:25;;;;;;;;;;;;;;;20.76;40.99;99679.95;1776646;80;21108;-68
2022/06/15 08:43:07;;;;;;;;;;;;;;;20.27;42.02;99683.67;1758723;80;20467;-69
2022/06/15 08:45:49;;;;;;;;;;;;;;;20.13;44.07;99680.71;1758504;80;20067;-68
2022/06/15 08:48:41;;;;;;;;;;;;;;;20.40;42.84;99682.88;1759042;80;20451;-68
2022/06/15 08:51:25;;;;;;;;;;;;;;;20.50;41.76;99682.81;1761390;80;20126;-68
2022/06/15 08:54:09;;;;;;;;;;;;;;;20.61;43.41;99685.14;1769150;80;21879;-68
2022/06/15 08:56:41;;;;;;;;;;;;;;;21.05;42.59;99679.65;1769754;81;20099;-67
2022/06/15 08:59:29;;;;;;;;;;;;;;;21.33;40.20;99678.57;1791884;80;20485;-68
2022/06/15 09:02:34;;;;;;;;;;;;;;;21.53;39.62;99669.34;1769704;81;20122;-68
2022/06/15 09:05:13;;;;;;;;;;;;;;;21.85;39.43;99682.17;1768882;80;20106;-68
2022/06/15 09:07:49;;;;;;;;;;;;;;;22.22;39.82;99675.03;1770082;81;23106;-68
2022/06/15 09:10:36;;;;;;;;;;;;;;;22.33;39.63;99678.69;1769718;81;20485;-68
2022/06/15 09:13:50;;;;;;;;;;;;;;;22.22;37.59;99677.03;1739011;80;20121;-68
2022/06/15 09:16:26;;;;;;;;;;;;;;;22.20;38.39;99676.02;1774643;80;20113;-68
2022/06/15 09:19:07;;;;;;;;;;;;;;;22.66;37.35;99673.42;1777619;80;20133;-68
2022/06/15 09:21:38;;;;;;;;;;;;;;;23.20;35.94;99668.78;1777565;80;21352;-68
2022/06/15 09:24:20;;;;;;;;;;;;;;;23.29;36.24;99664.20;1777298;80;20117;-68
2022/06/15 09:26:49;;;;;;;;;;;;;;;22.96;36.55;99673.76;1775954;80;20114;-68
2022/06/15 09:29:27;;;;;;;;;;;;;;;22.29;35.45;99656.90;1744099;81;20082;-68
2022/06/15 09:32:14;;;;;;;;;;;;;;;21.86;36.35;99678.19;1736317;81;20575;-68
2022/06/15 09:34:48;;;;;;;;;;;;;;;21.89;36.38;99668.23;1744204;81;20094;-68
2022/06/15 09:37:20;;;;;;;;;;;;;;;22.52;37.97;99672.59;1768730;81;20420;-68
2022/06/15 09:39:53;;;;;;;;;;;;;;;22.71;35.22;99661.05;1773673;81;20117;-68
2022/06/15 09:42:26;;;;;;;;;;;;;;;22.26;36.58;99663.88;1773735;80;20122;-69
2022/06/15 09:45:06;;;;;;;;;;;;;;;21.84;38.42;99671.39;1761286;80;20107;-68
2022/06/15 09:47:44;;;;;;;;;;;;;;;21.68;38.18;99664.09;1802088;78;20093;-69
2022/06/15 09:50:29;;;;;;;;;;;;;;;21.87;39.41;99661.62;1802044;79;20106;-68
2022/06/15 09:53:07;;;;;;;;;;;;;;;22.46;36.40;99651.78;1785044;79;20113;-68
2022/06/15 09:55:44;;;;;;;;;;;;;;;23.02;35.05;99654.78;1772051;79;20096;-70
2022/06/15 09:58:10;;;;;;;;;;;;;;;23.58;35.12;99656.64;1799920;79;20115;-70
2022/06/15 10:00:39;;;;;;;;;;;;;;;23.81;32.47;99647.79;1801265;79;21231;-69
2022/06/15 10:03:30;;;;;;;;;;;;;;;23.51;33.42;99648.20;1801172;79;20095;-68
2022/06/15 10:05:47;;;;;;;;;;;;;;;23.21;34.42;99654.98;1786565;79;20080;-68
2022/06/15 10:08:20;;;;;;;;;;;;;;;23.04;34.30;99659.38;1769458;79;20092;-68
2022/06/15 10:11:00;;;;;;;;;;;;;;;22.99;34.75;99656.17;1801319;79;20071;-68
2022/06/15 10:13:30;;;;;;;;;;;;;;;22.98;35.05;99653.16;1798705;79;21084;-70
2022/06/15 10:16:03;;;;;;;;;;;;;;;23.01;34.73;99657.37;1779111;79;20096;-68
2022/06/15 10:18:39;;;;;;;;;;;;;;;22.73;35.62;99660.86;1779399;80;20080;-68
2022/06/15 10:21:17;;;;;;;;;;;;;;;22.44;36.67;99663.96;1783919;79;20162;-69
2022/06/15 10:23:50;;;;;;;;;;;;;;;22.66;37.81;99660.03;1784982;80;20093;-68
2022/06/15 10:26:26;;;;;;;;;;;;;;;23.36;34.89;99648.20;1775454;80;21242;-68
2022/06/15 10:28:55;;;;;;;;;;;;;;;23.80;32.48;99645.59;1714411;82;20120;-68
2022/06/15 10:31:28;;;;;;;;;;;;;;;23.82;33.24;99634.77;1743834;82;20403;-68
2022/06/15 10:33:57;;;;;;;;;;;;;;;23.62;33.12;99651.23;1743635;82;20695;-68
2022/06/15 10:36:34;;;;;;;;;;;;;;;23.43;33.64;99646.60;1769621;80;20112;-69
2022/06/15 10:39:14;;;;;;;;;;;;;;;23.58;34.39;99642.03;1783737;79;20415;-69
2022/06/15 10:41:47;;;;;;;;;;;;;;;24.05;32.53;99649.75;1781127;80;20144;-69
2022/06/15 10:44:28;;;;;;;;;;;;;;;24.40;32.10;99634.03;1772976;81;20121;-71
2022/06/15 10:47:08;;;;;;;;;;;;;;;24.40;32.54;99639.64;1774279;81;20476;-69
2022/06/15 10:49:40;;;;;;;;;;;;;;;24.40;34.21;99639.64;1774379;81;20089;-70
2022/06/15 10:52:24;;;;;;;;;;;;;;;24.38;32.40;99641.45;1779540;79;21830;-70
2022/06/15 11:04:24;;;;;;;;;;;;;;;24.62;29.19;99636.34;1756407;81;20082;-69
2022/06/15 11:07:09;;;;;;;;;;;;;;;24.14;30.26;99626.30;1755639;81;21717;-69
2022/06/15 11:09:55;;;;;;;;;;;;;;;23.59;31.69;99640.03;1712999;81;20413;-69
2022/06/15 11:12:39;;;;;;;;;;;;;;;23.19;33.45;99644.78;1755424;81;20111;-70
2022/06/15 11:15:20;;;;;;;;;;;;;;;23.40;34.89;99627.19;1782637;80;20127;-70
2022/06/15 11:20:47;;;;;;;;;;;;;;;24.09;31.60;99629.52;1752178;80;20104;-70
2022/06/15 11:23:38;;;;;;;;;;;;;;;24.58;32.22;99616.52;1786982;79;20416;-69
2022/06/15 11:25:57;;;;;;;;;;;;;;;25.05;31.71;99614.24;1756122;80;20086;-68
2022/06/15 11:28:29;;;;;;;;;;;;;;;25.45;31.12;99607.89;1780535;79;20115;-69
2022/06/15 11:31:05;;;;;;;;;;;;;;;25.80;29.34;99605.39;1787515;80;20438;-69
2022/06/15 11:33:57;;;;;;;;;;;;;;;25.99;29.28;99611.02;1787506;80;21260;-69
2022/06/15 11:36:27;;;;;;;;;;;;;;;25.85;30.06;99616.79;1786081;80;20561;-70
2022/06/15 11:39:02;;;;;;;;;;;;;;;25.51;29.51;99610.44;1785143;80;20152;-69
2022/06/15 11:41:41;;;;;;;;;;;;;;;25.18;30.65;99614.75;1787726;80;20068;-69
2022/06/15 11:44:27;;;;;;;;;;;;;;;24.78;29.50;99612.60;1758624;80;20081;-70
2022/06/15 11:47:14;;;;;;;;;;;;;;;24.10;30.10;99612.89;1758856;80;21143;-69
2022/06/15 11:49:56;;;;;;;;;;;;;;;23.55;30.40;99609.81;1787679;80;20120;-69
2022/06/15 11:52:27;;;;;;;;;;;;;;;23.50;31.18;99611.58;1805812;78;20089;-70
2022/06/15 11:55:22;;;;;;;;;;;;;;;23.88;33.10;99607.94;1825794;78;20323;-70
2022/06/15 11:58:26;;;;;;;;;;;;;;;24.33;31.64;99610.41;1789770;78;20110;-69
2022/06/15 12:01:02;;;;;;;;;;;;;;;24.51;31.32;99620.75;1825707;78;20077;-70
2022/06/15 12:03:51;;;;;;;;;;;;;;;24.70;31.69;99611.84;1824808;78;20129;-69
2022/06/15 12:06:54;;;;;;;;;;;;;;;24.92;31.15;99604.86;1825753;78;20070;-69
2022/06/15 12:09:42;;;;;;;;;;;;;;;25.26;29.68;99606.46;1825606;78;20142;-69
2022/06/15 12:12:42;;;;;;;;;;;;;;;25.44;28.37;99598.47;1825671;78;20078;-69
2022/06/15 12:15:19;;;;;;;;;;;;;;;25.55;28.89;99601.38;1824748;78;21498;-69
2022/06/15 12:18:08;;;;;;;;;;;;;;;25.55;27.86;99599.97;1792376;78;20509;-69
2022/06/15 12:21:04;;;;;;;;;;;;;;;25.03;26.90;99590.78;1825645;78;20484;-69
2022/06/15 12:23:42;;;;;;;;;;;;;;;24.20;28.73;99603.64;1825757;78;20085;-69
2022/06/15 12:26:37;;;;;;;;;;;;;;;23.59;29.95;99595.20;1825750;78;20405;-69
2022/06/15 12:29:18;;;;;;;;;;;;;;;23.37;30.85;99606.98;1805548;78;21752;-71
2022/06/15 12:35:12;;;;;;;;;;;;;;;23.56;32.36;99594.00;1825488;78;20109;-69
2022/06/15 12:37:56;;;;;;;;;;;;;;;24.18;33.04;99601.84;1825516;78;20110;-69
2022/06/15 12:40:43;;;;;;;;;;;;;;;24.59;30.75;99595.66;1824032;78;20106;-70
2022/06/15 12:43:33;;;;;;;;;;;;;;;24.48;31.14;99595.72;1795279;79;21260;-69
2022/06/15 12:46:20;;;;;;;;;;;;;;;24.33;31.81;99603.39;1811232;78;20089;-70
2022/06/15 12:48:52;;;;;;;;;;;;;;;24.16;31.25;99604.25;1772616;79;20115;-69
2022/06/15 12:51:39;;;;;;;;;;;;;;;24.30;31.55;99607.61;1765110;81;20457;-70
2022/06/15 12:54:18;;;;;;;;;;;;;;;24.81;31.69;99596.34;1771730;80;20104;-70
2022/06/15 12:56:55;;;;;;;;;;;;;;;25.47;29.80;99592.02;1763137;80;21161;-69
2022/06/15 12:59:43;;;;;;;;;;;;;;;25.63;29.69;99602.91;1751897;80;20123;-69
2022/06/15 13:02:27;;;;;;;;;;;;;;;25.30;29.53;99594.59;1771819;80;20134;-68
2022/06/15 13:05:12;;;;;;;;;;;;;;;24.81;29.86;99599.15;1789843;80;20622;-68
2022/06/15 13:07:43;;;;;;;;;;;;;;;24.41;31.38;99599.16;1793716;80;20748;-70
2022/06/15 13:10:13;;;;;;;;;;;;;;;24.11;31.99;99600.47;1791397;80;21085;-71
2022/06/15 13:12:54;;;;;;;;;;;;;;;24.13;32.07;99593.05;1795051;80;20105;-71
2022/06/15 13:15:34;;;;;;;;;;;;;;;24.49;31.25;99595.11;1735471;80;20447;-69
2022/06/15 13:18:15;;;;;;;;;;;;;;;25.07;29.46;99597.78;1791591;80;20089;-71
2022/06/15 13:20:50;;;;;;;;;;;;;;;25.64;28.81;99590.48;1777939;80;20185;-70
2022/06/15 13:23:30;;;;;;;;;;;;;;;25.78;27.58;99590.15;1750159;81;21176;-71
2022/06/15 13:26:12;;;;;;;;;;;;;;;25.49;28.27;99588.98;1731278;81;20122;-70
2022/06/15 13:28:40;;;;;;;;;;;;;;;25.04;28.91;99592.98;1757185;81;20217;-71
2022/06/15 13:31:31;;;;;;;;;;;;;;;24.69;29.09;99594.20;1756129;81;20194;-71
2022/06/15 13:34:01;;;;;;;;;;;;;;;24.42;29.78;99599.35;1681398;85;20174;-70
2022/06/15 13:36:36;;;;;;;;;;;;;;;24.15;30.51;99597.65;1718750;81;21142;-71
2022/06/15 13:39:09;;;;;;;;;;;;;;;23.93;31.20;99599.11;1756380;81;20138;-72
2022/06/15 13:41:40;;;;;;;;;;;;;;;23.74;31.63;99593.95;1752200;81;20143;-70
2022/06/15 13:44:13;;;;;;;;;;;;;;;23.92;31.98;99592.50;1721568;81;20144;-69
2022/06/15 13:46:48;;;;;;;;;;;;;;;24.30;32.12;99590.78;1794853;79;20163;-71